sensor_id;sensor_type;location;lat;lon;timestamp;P1;durP1;ratioP1;P2;durP2;ratioP2
60488;SDS011;46331;49.252;8.904;2024-01-11T00:00:11;28.47;;;11.83;;
60488;SDS011;46331;49.252;8.904;2024-01-11T00:00:52;30.30;;;13.15;;
60488;SDS011;46331;49.252;8.904;2024-01-11T00:01:33;29.03;;;12.57;;
60488;SDS011;46331;49.252;8.904;2024-01-11T00:02:13;35.70;;;13.85;;
60488;SDS011;46331;49.252;8.904;2024-01-11T00:02:53;32.60;;;12.50;;
60488;SDS011;46331;49.252;8.904;2024-01-11T00:03:34;28.60;;;12.63;;
60488;SDS011;46331;49.252;8.904;2024-01-11T00:04:15;29.10;;;12.52;;
60488;SDS011;46331;49.252;8.904;2024-01-11T00:04:55;27.70;;;12.43;;
60488;SDS011;46331;49.252;8.904;2024-01-11T00:05:36;28.27;;;12.00;;
60488;SDS011;46331;49.252;8.904;2024-01-11T00:06:16;27.57;;;12.37;;
60488;SDS011;46331;49.252;8.904;2024-01-11T00:06:57;27.77;;;12.50;;
60488;SDS011;46331;49.252;8.904;2024-01-11T00:07:37;31.53;;;12.07;;
60488;SDS011;46331;49.252;8.904;2024-01-11T00:08:18;27.03;;;10.77;;
60488;SDS011;46331;49.252;8.904;2024-01-11T00:08:58;30.02;;;12.38;;
60488;SDS011;46331;49.252;8.904;2024-01-11T00:09:40;32.10;;;12.80;;
60488;SDS011;46331;49.252;8.904;2024-01-11T00:10:22;29.13;;;11.98;;
60488;SDS011;46331;49.252;8.904;2024-01-11T00:11:02;29.92;;;12.00;;
60488;SDS011;46331;49.252;8.904;2024-01-11T00:11:43;22.05;;;10.90;;
60488;SDS011;46331;49.252;8.904;2024-01-11T00:12:24;30.10;;;11.45;;
60488;SDS011;46331;49.252;8.904;2024-01-11T00:13:04;27.00;;;12.03;;
60488;SDS011;46331;49.252;8.904;2024-01-11T00:13:45;27.65;;;11.57;;
60488;SDS011;46331;49.252;8.904;2024-01-11T00:14:26;29.17;;;12.02;;
60488;SDS011;46331;49.252;8.904;2024-01-11T00:15:09;28.83;;;10.88;;
60488;SDS011;46331;49.252;8.904;2024-01-11T00:15:50;26.52;;;11.15;;
60488;SDS011;46331;49.252;8.904;2024-01-11T00:16:30;33.43;;;12.50;;
60488;SDS011;46331;49.252;8.904;2024-01-11T00:17:11;34.15;;;13.15;;
60488;SDS011;46331;49.252;8.904;2024-01-11T00:17:51;27.43;;;11.30;;
60488;SDS011;46331;49.252;8.904;2024-01-11T00:18:32;30.63;;;11.87;;
60488;SDS011;46331;49.252;8.904;2024-01-11T00:19:12;28.13;;;10.98;;
60488;SDS011;46331;49.252;8.904;2024-01-11T00:19:53;30.50;;;12.30;;
60488;SDS011;46331;49.252;8.904;2024-01-11T00:20:33;28.58;;;11.95;;
60488;SDS011;46331;49.252;8.904;2024-01-11T00:21:14;24.67;;;10.57;;
60488;SDS011;46331;49.252;8.904;2024-01-11T00:21:55;24.77;;;11.75;;
60488;SDS011;46331;49.252;8.904;2024-01-11T00:22:36;26.50;;;11.97;;
60488;SDS011;46331;49.252;8.904;2024-01-11T00:23:16;26.63;;;12.13;;
60488;SDS011;46331;49.252;8.904;2024-01-11T00:23:57;30.33;;;12.87;;
60488;SDS011;46331;49.252;8.904;2024-01-11T00:24:37;26.23;;;11.75;;
60488;SDS011;46331;49.252;8.904;2024-01-11T00:25:18;25.47;;;11.33;;
60488;SDS011;46331;49.252;8.904;2024-01-11T00:25:58;26.42;;;11.57;;
60488;SDS011;46331;49.252;8.904;2024-01-11T00:26:39;29.77;;;12.32;;
60488;SDS011;46331;49.252;8.904;2024-01-11T00:27:20;29.00;;;12.10;;
60488;SDS011;46331;49.252;8.904;2024-01-11T00:28:01;27.97;;;12.27;;
60488;SDS011;46331;49.252;8.904;2024-01-11T00:28:42;33.85;;;12.93;;
60488;SDS011;46331;49.252;8.904;2024-01-11T00:29:22;29.00;;;12.82;;
60488;SDS011;46331;49.252;8.904;2024-01-11T00:30:03;26.73;;;12.33;;
60488;SDS011;46331;49.252;8.904;2024-01-11T00:30:44;25.90;;;12.40;;
60488;SDS011;46331;49.252;8.904;2024-01-11T00:31:25;29.63;;;12.53;;
60488;SDS011;46331;49.252;8.904;2024-01-11T00:32:05;25.20;;;11.75;;
60488;SDS011;46331;49.252;8.904;2024-01-11T00:32:46;31.40;;;12.47;;
60488;SDS011;46331;49.252;8.904;2024-01-11T00:33:27;32.78;;;12.98;;
60488;SDS011;46331;49.252;8.904;2024-01-11T00:34:07;28.98;;;12.20;;
60488;SDS011;46331;49.252;8.904;2024-01-11T00:34:47;29.33;;;12.20;;
60488;SDS011;46331;49.252;8.904;2024-01-11T00:35:28;28.77;;;12.55;;
60488;SDS011;46331;49.252;8.904;2024-01-11T00:36:08;31.90;;;13.10;;
60488;SDS011;46331;49.252;8.904;2024-01-11T00:36:49;30.00;;;11.90;;
60488;SDS011;46331;49.252;8.904;2024-01-11T00:37:30;29.30;;;11.75;;
60488;SDS011;46331;49.252;8.904;2024-01-11T00:38:10;27.75;;;11.98;;
60488;SDS011;46331;49.252;8.904;2024-01-11T00:38:51;26.83;;;11.73;;
60488;SDS011;46331;49.252;8.904;2024-01-11T00:39:31;30.40;;;13.48;;
60488;SDS011;46331;49.252;8.904;2024-01-11T00:40:12;30.35;;;12.00;;
60488;SDS011;46331;49.252;8.904;2024-01-11T00:40:53;28.02;;;12.07;;
60488;SDS011;46331;49.252;8.904;2024-01-11T00:41:33;31.63;;;13.32;;
60488;SDS011;46331;49.252;8.904;2024-01-11T00:42:14;33.03;;;13.00;;
60488;SDS011;46331;49.252;8.904;2024-01-11T00:42:54;28.90;;;13.23;;
60488;SDS011;46331;49.252;8.904;2024-01-11T00:43:35;32.27;;;13.10;;
60488;SDS011;46331;49.252;8.904;2024-01-11T00:44:15;31.93;;;13.53;;
60488;SDS011;46331;49.252;8.904;2024-01-11T00:44:56;33.08;;;14.07;;
60488;SDS011;46331;49.252;8.904;2024-01-11T00:45:37;28.58;;;12.82;;
60488;SDS011;46331;49.252;8.904;2024-01-11T00:46:18;30.55;;;12.80;;
60488;SDS011;46331;49.252;8.904;2024-01-11T00:46:58;27.33;;;12.03;;
60488;SDS011;46331;49.252;8.904;2024-01-11T00:47:39;30.30;;;12.97;;
60488;SDS011;46331;49.252;8.904;2024-01-11T00:48:19;31.45;;;12.73;;
60488;SDS011;46331;49.252;8.904;2024-01-11T00:49:00;26.23;;;11.60;;
60488;SDS011;46331;49.252;8.904;2024-01-11T00:49:40;33.10;;;13.10;;
60488;SDS011;46331;49.252;8.904;2024-01-11T00:50:21;25.33;;;11.90;;
60488;SDS011;46331;49.252;8.904;2024-01-11T00:51:03;32.27;;;12.83;;
60488;SDS011;46331;49.252;8.904;2024-01-11T00:51:44;30.85;;;13.00;;
60488;SDS011;46331;49.252;8.904;2024-01-11T00:52:25;30.23;;;13.73;;
60488;SDS011;46331;49.252;8.904;2024-01-11T00:53:05;31.13;;;13.67;;
60488;SDS011;46331;49.252;8.904;2024-01-11T00:53:46;29.33;;;11.77;;
60488;SDS011;46331;49.252;8.904;2024-01-11T00:54:26;28.70;;;12.30;;
60488;SDS011;46331;49.252;8.904;2024-01-11T00:55:07;30.53;;;13.90;;
60488;SDS011;46331;49.252;8.904;2024-01-11T00:55:47;35.75;;;13.80;;
60488;SDS011;46331;49.252;8.904;2024-01-11T00:56:28;30.60;;;13.63;;
60488;SDS011;46331;49.252;8.904;2024-01-11T00:57:08;30.85;;;13.35;;
60488;SDS011;46331;49.252;8.904;2024-01-11T00:57:49;30.07;;;12.97;;
60488;SDS011;46331;49.252;8.904;2024-01-11T00:58:30;34.35;;;13.20;;
60488;SDS011;46331;49.252;8.904;2024-01-11T00:59:11;31.63;;;13.17;;
60488;SDS011;46331;49.252;8.904;2024-01-11T00:59:51;28.38;;;12.10;;
60488;SDS011;46331;49.252;8.904;2024-01-11T01:00:32;29.20;;;12.27;;
60488;SDS011;46331;49.252;8.904;2024-01-11T01:01:12;28.83;;;13.15;;
60488;SDS011;46331;49.252;8.904;2024-01-11T01:01:53;26.33;;;11.53;;
60488;SDS011;46331;49.252;8.904;2024-01-11T01:02:33;30.45;;;12.57;;
60488;SDS011;46331;49.252;8.904;2024-01-11T01:03:14;26.70;;;11.67;;
60488;SDS011;46331;49.252;8.904;2024-01-11T01:03:56;27.00;;;11.18;;
60488;SDS011;46331;49.252;8.904;2024-01-11T01:04:37;32.22;;;12.27;;
60488;SDS011;46331;49.252;8.904;2024-01-11T01:05:19;29.23;;;12.07;;
60488;SDS011;46331;49.252;8.904;2024-01-11T01:05:59;23.05;;;10.88;;
60488;SDS011;46331;49.252;8.904;2024-01-11T01:06:41;30.90;;;12.32;;
60488;SDS011;46331;49.252;8.904;2024-01-11T01:07:23;27.35;;;12.35;;
60488;SDS011;46331;49.252;8.904;2024-01-11T01:08:03;27.57;;;12.07;;
60488;SDS011;46331;49.252;8.904;2024-01-11T01:08:45;28.35;;;11.82;;
60488;SDS011;46331;49.252;8.904;2024-01-11T01:09:27;30.80;;;12.00;;
60488;SDS011;46331;49.252;8.904;2024-01-11T01:10:07;29.10;;;12.30;;
60488;SDS011;46331;49.252;8.904;2024-01-11T01:10:48;29.13;;;12.25;;
60488;SDS011;46331;49.252;8.904;2024-01-11T01:11:31;26.57;;;11.90;;
60488;SDS011;46331;49.252;8.904;2024-01-11T01:12:12;22.25;;;10.23;;
60488;SDS011;46331;49.252;8.904;2024-01-11T01:12:52;29.85;;;13.32;;
60488;SDS011;46331;49.252;8.904;2024-01-11T01:13:33;31.27;;;12.83;;
60488;SDS011;46331;49.252;8.904;2024-01-11T01:14:13;26.92;;;11.40;;
60488;SDS011;46331;49.252;8.904;2024-01-11T01:14:54;26.17;;;11.93;;
60488;SDS011;46331;49.252;8.904;2024-01-11T01:15:35;32.47;;;12.80;;
60488;SDS011;46331;49.252;8.904;2024-01-11T01:16:16;30.50;;;14.00;;
60488;SDS011;46331;49.252;8.904;2024-01-11T01:16:58;35.78;;;13.23;;
60488;SDS011;46331;49.252;8.904;2024-01-11T01:17:38;29.00;;;13.18;;
60488;SDS011;46331;49.252;8.904;2024-01-11T01:18:18;32.53;;;13.87;;
60488;SDS011;46331;49.252;8.904;2024-01-11T01:18:59;33.83;;;13.30;;
60488;SDS011;46331;49.252;8.904;2024-01-11T01:19:40;29.50;;;13.38;;
60488;SDS011;46331;49.252;8.904;2024-01-11T01:20:20;28.83;;;12.33;;
60488;SDS011;46331;49.252;8.904;2024-01-11T01:21:00;29.93;;;12.37;;
60488;SDS011;46331;49.252;8.904;2024-01-11T01:21:41;29.48;;;12.77;;
60488;SDS011;46331;49.252;8.904;2024-01-11T01:22:21;34.30;;;13.80;;
60488;SDS011;46331;49.252;8.904;2024-01-11T01:23:02;31.85;;;13.30;;
60488;SDS011;46331;49.252;8.904;2024-01-11T01:23:43;34.00;;;13.93;;
60488;SDS011;46331;49.252;8.904;2024-01-11T01:24:23;30.65;;;13.05;;
60488;SDS011;46331;49.252;8.904;2024-01-11T01:25:04;32.60;;;11.87;;
60488;SDS011;46331;49.252;8.904;2024-01-11T01:25:44;29.17;;;12.27;;
60488;SDS011;46331;49.252;8.904;2024-01-11T01:26:25;27.87;;;13.17;;
60488;SDS011;46331;49.252;8.904;2024-01-11T01:27:05;31.15;;;12.02;;
60488;SDS011;46331;49.252;8.904;2024-01-11T01:27:49;28.90;;;11.20;;
60488;SDS011;46331;49.252;8.904;2024-01-11T01:28:29;30.45;;;11.95;;
60488;SDS011;46331;49.252;8.904;2024-01-11T01:29:10;32.07;;;13.80;;
60488;SDS011;46331;49.252;8.904;2024-01-11T01:29:50;33.10;;;12.95;;
60488;SDS011;46331;49.252;8.904;2024-01-11T01:30:33;34.55;;;14.38;;
60488;SDS011;46331;49.252;8.904;2024-01-11T01:31:14;27.65;;;10.98;;
60488;SDS011;46331;49.252;8.904;2024-01-11T01:31:54;28.10;;;12.87;;
60488;SDS011;46331;49.252;8.904;2024-01-11T01:32:35;25.48;;;11.90;;
60488;SDS011;46331;49.252;8.904;2024-01-11T01:33:16;30.37;;;13.27;;
60488;SDS011;46331;49.252;8.904;2024-01-11T01:33:57;30.80;;;12.82;;
60488;SDS011;46331;49.252;8.904;2024-01-11T01:34:38;32.70;;;12.90;;
60488;SDS011;46331;49.252;8.904;2024-01-11T01:35:18;29.97;;;11.63;;
60488;SDS011;46331;49.252;8.904;2024-01-11T01:35:59;32.77;;;13.30;;
60488;SDS011;46331;49.252;8.904;2024-01-11T01:36:39;26.83;;;12.15;;
60488;SDS011;46331;49.252;8.904;2024-01-11T01:37:20;33.50;;;13.40;;
60488;SDS011;46331;49.252;8.904;2024-01-11T01:38:01;30.07;;;12.40;;
60488;SDS011;46331;49.252;8.904;2024-01-11T01:38:42;30.20;;;13.57;;
60488;SDS011;46331;49.252;8.904;2024-01-11T01:39:23;33.50;;;12.97;;
60488;SDS011;46331;49.252;8.904;2024-01-11T01:40:03;32.47;;;12.40;;
60488;SDS011;46331;49.252;8.904;2024-01-11T01:40:44;28.25;;;11.93;;
60488;SDS011;46331;49.252;8.904;2024-01-11T01:41:24;36.00;;;14.60;;
60488;SDS011;46331;49.252;8.904;2024-01-11T01:42:05;28.37;;;12.10;;
60488;SDS011;46331;49.252;8.904;2024-01-11T01:42:47;30.17;;;13.05;;
60488;SDS011;46331;49.252;8.904;2024-01-11T01:43:28;26.17;;;11.98;;
60488;SDS011;46331;49.252;8.904;2024-01-11T01:44:09;30.47;;;13.40;;
60488;SDS011;46331;49.252;8.904;2024-01-11T01:44:49;29.65;;;12.40;;
60488;SDS011;46331;49.252;8.904;2024-01-11T01:45:32;28.47;;;12.00;;
60488;SDS011;46331;49.252;8.904;2024-01-11T01:46:14;29.40;;;12.25;;
60488;SDS011;46331;49.252;8.904;2024-01-11T01:47:02;28.90;;;12.40;;
60488;SDS011;46331;49.252;8.904;2024-01-11T01:47:45;25.75;;;11.48;;
60488;SDS011;46331;49.252;8.904;2024-01-11T01:48:26;28.67;;;11.68;;
60488;SDS011;46331;49.252;8.904;2024-01-11T01:49:07;28.98;;;13.55;;
60488;SDS011;46331;49.252;8.904;2024-01-11T01:49:51;33.05;;;13.60;;
60488;SDS011;46331;49.252;8.904;2024-01-11T01:50:33;31.52;;;12.70;;
60488;SDS011;46331;49.252;8.904;2024-01-11T01:51:14;35.33;;;13.48;;
60488;SDS011;46331;49.252;8.904;2024-01-11T01:51:55;33.03;;;14.27;;
60488;SDS011;46331;49.252;8.904;2024-01-11T01:52:37;34.47;;;13.30;;
60488;SDS011;46331;49.252;8.904;2024-01-11T01:53:20;45.50;;;16.98;;
60488;SDS011;46331;49.252;8.904;2024-01-11T01:54:03;33.05;;;13.68;;
60488;SDS011;46331;49.252;8.904;2024-01-11T01:54:44;32.63;;;13.10;;
60488;SDS011;46331;49.252;8.904;2024-01-11T01:55:25;37.97;;;15.37;;
60488;SDS011;46331;49.252;8.904;2024-01-11T01:56:06;34.40;;;13.85;;
60488;SDS011;46331;49.252;8.904;2024-01-11T01:56:48;34.03;;;13.35;;
60488;SDS011;46331;49.252;8.904;2024-01-11T01:57:29;33.15;;;13.77;;
60488;SDS011;46331;49.252;8.904;2024-01-11T01:58:12;32.58;;;13.40;;
60488;SDS011;46331;49.252;8.904;2024-01-11T01:58:53;34.33;;;14.53;;
60488;SDS011;46331;49.252;8.904;2024-01-11T01:59:38;25.70;;;12.18;;
60488;SDS011;46331;49.252;8.904;2024-01-11T02:00:19;34.53;;;12.88;;
60488;SDS011;46331;49.252;8.904;2024-01-11T02:01:00;27.45;;;11.82;;
60488;SDS011;46331;49.252;8.904;2024-01-11T02:01:42;31.42;;;13.57;;
60488;SDS011;46331;49.252;8.904;2024-01-11T02:02:23;32.92;;;13.68;;
60488;SDS011;46331;49.252;8.904;2024-01-11T02:03:03;32.25;;;13.05;;
60488;SDS011;46331;49.252;8.904;2024-01-11T02:03:45;30.33;;;13.13;;
60488;SDS011;46331;49.252;8.904;2024-01-11T02:04:26;35.45;;;14.15;;
60488;SDS011;46331;49.252;8.904;2024-01-11T02:05:07;30.80;;;13.27;;
60488;SDS011;46331;49.252;8.904;2024-01-11T02:05:48;36.17;;;15.00;;
60488;SDS011;46331;49.252;8.904;2024-01-11T02:06:29;38.35;;;16.08;;
60488;SDS011;46331;49.252;8.904;2024-01-11T02:07:14;40.00;;;16.13;;
60488;SDS011;46331;49.252;8.904;2024-01-11T02:07:55;31.88;;;13.25;;
60488;SDS011;46331;49.252;8.904;2024-01-11T02:08:40;30.77;;;12.85;;
60488;SDS011;46331;49.252;8.904;2024-01-11T02:09:23;31.90;;;14.05;;
60488;SDS011;46331;49.252;8.904;2024-01-11T02:10:05;33.95;;;13.88;;
60488;SDS011;46331;49.252;8.904;2024-01-11T02:10:47;39.70;;;15.57;;
60488;SDS011;46331;49.252;8.904;2024-01-11T02:11:27;38.10;;;15.25;;
60488;SDS011;46331;49.252;8.904;2024-01-11T02:12:08;35.87;;;15.20;;
60488;SDS011;46331;49.252;8.904;2024-01-11T02:12:51;34.72;;;15.25;;
60488;SDS011;46331;49.252;8.904;2024-01-11T02:13:32;33.50;;;14.85;;
60488;SDS011;46331;49.252;8.904;2024-01-11T02:14:12;35.13;;;15.63;;
60488;SDS011;46331;49.252;8.904;2024-01-11T02:14:53;39.93;;;16.90;;
60488;SDS011;46331;49.252;8.904;2024-01-11T02:15:34;35.42;;;16.88;;
60488;SDS011;46331;49.252;8.904;2024-01-11T02:16:15;34.95;;;14.93;;
60488;SDS011;46331;49.252;8.904;2024-01-11T02:16:55;42.78;;;16.83;;
60488;SDS011;46331;49.252;8.904;2024-01-11T02:17:36;37.03;;;15.57;;
60488;SDS011;46331;49.252;8.904;2024-01-11T02:18:16;41.33;;;16.00;;
60488;SDS011;46331;49.252;8.904;2024-01-11T02:18:57;37.38;;;15.07;;
60488;SDS011;46331;49.252;8.904;2024-01-11T02:19:38;38.83;;;15.87;;
60488;SDS011;46331;49.252;8.904;2024-01-11T02:20:18;38.30;;;15.32;;
60488;SDS011;46331;49.252;8.904;2024-01-11T02:20:59;34.03;;;15.10;;
60488;SDS011;46331;49.252;8.904;2024-01-11T02:21:41;33.25;;;14.10;;
60488;SDS011;46331;49.252;8.904;2024-01-11T02:22:31;30.48;;;13.25;;
60488;SDS011;46331;49.252;8.904;2024-01-11T02:23:16;34.05;;;14.05;;
60488;SDS011;46331;49.252;8.904;2024-01-11T02:24:42;32.75;;;14.10;;
60488;SDS011;46331;49.252;8.904;2024-01-11T02:25:25;29.88;;;14.23;;
60488;SDS011;46331;49.252;8.904;2024-01-11T02:26:08;29.17;;;12.45;;
60488;SDS011;46331;49.252;8.904;2024-01-11T02:27:48;29.27;;;12.48;;
60488;SDS011;46331;49.252;8.904;2024-01-11T02:28:30;29.80;;;12.18;;
60488;SDS011;46331;49.252;8.904;2024-01-11T02:29:10;33.93;;;13.47;;
60488;SDS011;46331;49.252;8.904;2024-01-11T02:29:50;32.63;;;13.60;;
60488;SDS011;46331;49.252;8.904;2024-01-11T02:30:31;28.40;;;12.73;;
60488;SDS011;46331;49.252;8.904;2024-01-11T02:31:12;33.47;;;15.27;;
60488;SDS011;46331;49.252;8.904;2024-01-11T02:31:54;33.25;;;14.38;;
60488;SDS011;46331;49.252;8.904;2024-01-11T02:32:35;31.65;;;13.02;;
60488;SDS011;46331;49.252;8.904;2024-01-11T02:33:19;31.40;;;13.57;;
60488;SDS011;46331;49.252;8.904;2024-01-11T02:34:00;33.55;;;14.38;;
60488;SDS011;46331;49.252;8.904;2024-01-11T02:34:40;33.60;;;14.23;;
60488;SDS011;46331;49.252;8.904;2024-01-11T02:35:21;33.75;;;14.55;;
60488;SDS011;46331;49.252;8.904;2024-01-11T02:36:03;32.58;;;13.93;;
60488;SDS011;46331;49.252;8.904;2024-01-11T02:36:44;34.72;;;14.80;;
60488;SDS011;46331;49.252;8.904;2024-01-11T02:37:25;31.75;;;14.18;;
60488;SDS011;46331;49.252;8.904;2024-01-11T02:38:06;34.73;;;13.80;;
60488;SDS011;46331;49.252;8.904;2024-01-11T02:38:46;36.17;;;14.73;;
60488;SDS011;46331;49.252;8.904;2024-01-11T02:39:28;32.85;;;14.35;;
60488;SDS011;46331;49.252;8.904;2024-01-11T02:40:09;36.13;;;13.95;;
60488;SDS011;46331;49.252;8.904;2024-01-11T02:40:50;30.77;;;13.05;;
60488;SDS011;46331;49.252;8.904;2024-01-11T02:41:32;32.53;;;13.32;;
60488;SDS011;46331;49.252;8.904;2024-01-11T02:42:12;30.35;;;12.63;;
60488;SDS011;46331;49.252;8.904;2024-01-11T02:42:53;33.75;;;13.15;;
60488;SDS011;46331;49.252;8.904;2024-01-11T02:43:34;32.50;;;12.97;;
60488;SDS011;46331;49.252;8.904;2024-01-11T02:44:17;31.55;;;13.18;;
60488;SDS011;46331;49.252;8.904;2024-01-11T02:44:58;33.37;;;13.43;;
60488;SDS011;46331;49.252;8.904;2024-01-11T02:45:38;39.60;;;15.90;;
60488;SDS011;46331;49.252;8.904;2024-01-11T02:46:19;34.50;;;13.03;;
60488;SDS011;46331;49.252;8.904;2024-01-11T02:46:59;31.00;;;12.80;;
60488;SDS011;46331;49.252;8.904;2024-01-11T02:47:40;34.80;;;13.17;;
60488;SDS011;46331;49.252;8.904;2024-01-11T02:48:21;31.50;;;13.27;;
60488;SDS011;46331;49.252;8.904;2024-01-11T02:49:02;36.40;;;14.40;;
60488;SDS011;46331;49.252;8.904;2024-01-11T02:49:42;36.25;;;14.02;;
60488;SDS011;46331;49.252;8.904;2024-01-11T02:50:23;38.55;;;14.90;;
60488;SDS011;46331;49.252;8.904;2024-01-11T02:51:04;36.40;;;15.27;;
60488;SDS011;46331;49.252;8.904;2024-01-11T02:51:44;35.78;;;15.55;;
60488;SDS011;46331;49.252;8.904;2024-01-11T02:52:25;39.00;;;14.60;;
60488;SDS011;46331;49.252;8.904;2024-01-11T02:53:07;43.53;;;15.95;;
60488;SDS011;46331;49.252;8.904;2024-01-11T02:53:47;38.97;;;14.50;;
60488;SDS011;46331;49.252;8.904;2024-01-11T02:54:28;38.13;;;15.02;;
60488;SDS011;46331;49.252;8.904;2024-01-11T02:55:08;48.70;;;15.93;;
60488;SDS011;46331;49.252;8.904;2024-01-11T02:55:50;39.45;;;15.30;;
60488;SDS011;46331;49.252;8.904;2024-01-11T02:56:31;39.30;;;15.75;;
60488;SDS011;46331;49.252;8.904;2024-01-11T02:57:12;42.92;;;14.90;;
60488;SDS011;46331;49.252;8.904;2024-01-11T02:57:52;38.93;;;14.67;;
60488;SDS011;46331;49.252;8.904;2024-01-11T02:58:33;40.37;;;14.93;;
60488;SDS011;46331;49.252;8.904;2024-01-11T02:59:14;35.03;;;14.48;;
60488;SDS011;46331;49.252;8.904;2024-01-11T02:59:54;39.85;;;14.85;;
60488;SDS011;46331;49.252;8.904;2024-01-11T03:00:35;35.33;;;13.27;;
60488;SDS011;46331;49.252;8.904;2024-01-11T03:01:15;40.97;;;15.23;;
60488;SDS011;46331;49.252;8.904;2024-01-11T03:01:56;41.17;;;16.85;;
60488;SDS011;46331;49.252;8.904;2024-01-11T03:02:37;36.70;;;15.30;;
60488;SDS011;46331;49.252;8.904;2024-01-11T03:03:18;33.42;;;13.80;;
60488;SDS011;46331;49.252;8.904;2024-01-11T03:03:59;35.20;;;13.73;;
60488;SDS011;46331;49.252;8.904;2024-01-11T03:04:39;37.73;;;14.67;;
60488;SDS011;46331;49.252;8.904;2024-01-11T03:05:20;31.48;;;13.80;;
60488;SDS011;46331;49.252;8.904;2024-01-11T03:06:00;35.47;;;13.57;;
60488;SDS011;46331;49.252;8.904;2024-01-11T03:06:41;32.03;;;13.93;;
60488;SDS011;46331;49.252;8.904;2024-01-11T03:07:21;37.97;;;13.07;;
60488;SDS011;46331;49.252;8.904;2024-01-11T03:08:02;36.37;;;13.33;;
60488;SDS011;46331;49.252;8.904;2024-01-11T03:08:42;36.08;;;13.00;;
60488;SDS011;46331;49.252;8.904;2024-01-11T03:09:23;33.07;;;13.63;;
60488;SDS011;46331;49.252;8.904;2024-01-11T03:10:04;32.87;;;12.83;;
60488;SDS011;46331;49.252;8.904;2024-01-11T03:10:44;34.00;;;13.82;;
60488;SDS011;46331;49.252;8.904;2024-01-11T03:11:25;30.27;;;13.40;;
60488;SDS011;46331;49.252;8.904;2024-01-11T03:12:05;30.48;;;12.73;;
60488;SDS011;46331;49.252;8.904;2024-01-11T03:12:47;30.80;;;12.65;;
60488;SDS011;46331;49.252;8.904;2024-01-11T03:13:29;32.97;;;13.65;;
60488;SDS011;46331;49.252;8.904;2024-01-11T03:14:09;29.17;;;13.17;;
60488;SDS011;46331;49.252;8.904;2024-01-11T03:14:50;31.93;;;12.33;;
60488;SDS011;46331;49.252;8.904;2024-01-11T03:15:30;34.08;;;13.63;;
60488;SDS011;46331;49.252;8.904;2024-01-11T03:16:11;30.83;;;13.43;;
60488;SDS011;46331;49.252;8.904;2024-01-11T03:16:52;30.75;;;12.70;;
60488;SDS011;46331;49.252;8.904;2024-01-11T03:17:32;28.93;;;12.37;;
60488;SDS011;46331;49.252;8.904;2024-01-11T03:18:13;29.83;;;12.05;;
60488;SDS011;46331;49.252;8.904;2024-01-11T03:18:54;32.35;;;13.10;;
60488;SDS011;46331;49.252;8.904;2024-01-11T03:19:38;31.07;;;13.17;;
60488;SDS011;46331;49.252;8.904;2024-01-11T03:20:22;28.77;;;12.15;;
60488;SDS011;46331;49.252;8.904;2024-01-11T03:21:04;30.38;;;12.45;;
60488;SDS011;46331;49.252;8.904;2024-01-11T03:21:45;28.97;;;13.10;;
60488;SDS011;46331;49.252;8.904;2024-01-11T03:22:26;31.17;;;12.85;;
60488;SDS011;46331;49.252;8.904;2024-01-11T03:23:07;33.45;;;13.45;;
60488;SDS011;46331;49.252;8.904;2024-01-11T03:23:48;29.30;;;12.47;;
60488;SDS011;46331;49.252;8.904;2024-01-11T03:24:28;34.42;;;13.32;;
60488;SDS011;46331;49.252;8.904;2024-01-11T03:25:09;28.33;;;11.98;;
60488;SDS011;46331;49.252;8.904;2024-01-11T03:25:50;30.73;;;12.83;;
60488;SDS011;46331;49.252;8.904;2024-01-11T03:26:30;31.33;;;12.10;;
60488;SDS011;46331;49.252;8.904;2024-01-11T03:27:11;30.83;;;12.63;;
60488;SDS011;46331;49.252;8.904;2024-01-11T03:27:52;30.00;;;12.70;;
60488;SDS011;46331;49.252;8.904;2024-01-11T03:28:32;34.60;;;14.07;;
60488;SDS011;46331;49.252;8.904;2024-01-11T03:29:13;36.63;;;13.68;;
60488;SDS011;46331;49.252;8.904;2024-01-11T03:29:53;34.43;;;13.30;;
60488;SDS011;46331;49.252;8.904;2024-01-11T03:30:34;31.93;;;13.90;;
60488;SDS011;46331;49.252;8.904;2024-01-11T03:31:14;31.27;;;13.25;;
60488;SDS011;46331;49.252;8.904;2024-01-11T03:31:55;30.13;;;12.63;;
60488;SDS011;46331;49.252;8.904;2024-01-11T03:32:35;35.70;;;12.82;;
60488;SDS011;46331;49.252;8.904;2024-01-11T03:33:19;28.10;;;11.67;;
60488;SDS011;46331;49.252;8.904;2024-01-11T03:34:00;32.33;;;13.20;;
60488;SDS011;46331;49.252;8.904;2024-01-11T03:34:40;30.50;;;12.32;;
60488;SDS011;46331;49.252;8.904;2024-01-11T03:35:21;28.83;;;11.67;;
60488;SDS011;46331;49.252;8.904;2024-01-11T03:36:08;29.27;;;12.48;;
60488;SDS011;46331;49.252;8.904;2024-01-11T03:36:50;23.92;;;11.35;;
60488;SDS011;46331;49.252;8.904;2024-01-11T03:37:30;27.37;;;11.87;;
60488;SDS011;46331;49.252;8.904;2024-01-11T03:38:11;28.50;;;13.40;;
60488;SDS011;46331;49.252;8.904;2024-01-11T03:38:51;31.50;;;12.55;;
60488;SDS011;46331;49.252;8.904;2024-01-11T03:39:32;25.33;;;11.33;;
60488;SDS011;46331;49.252;8.904;2024-01-11T03:40:13;23.88;;;10.95;;
60488;SDS011;46331;49.252;8.904;2024-01-11T03:40:54;29.05;;;12.57;;
60488;SDS011;46331;49.252;8.904;2024-01-11T03:41:34;30.37;;;13.17;;
60488;SDS011;46331;49.252;8.904;2024-01-11T03:42:15;37.70;;;13.02;;
60488;SDS011;46331;49.252;8.904;2024-01-11T03:42:55;37.40;;;13.60;;
60488;SDS011;46331;49.252;8.904;2024-01-11T03:43:36;34.38;;;14.85;;
60488;SDS011;46331;49.252;8.904;2024-01-11T03:44:17;34.22;;;13.45;;
60488;SDS011;46331;49.252;8.904;2024-01-11T03:44:58;32.42;;;13.85;;
60488;SDS011;46331;49.252;8.904;2024-01-11T03:45:38;34.77;;;14.40;;
60488;SDS011;46331;49.252;8.904;2024-01-11T03:46:19;33.13;;;14.48;;
60488;SDS011;46331;49.252;8.904;2024-01-11T03:47:00;34.67;;;14.93;;
60488;SDS011;46331;49.252;8.904;2024-01-11T03:47:41;28.83;;;12.50;;
60488;SDS011;46331;49.252;8.904;2024-01-11T03:48:22;33.03;;;13.88;;
60488;SDS011;46331;49.252;8.904;2024-01-11T03:49:02;35.33;;;14.43;;
60488;SDS011;46331;49.252;8.904;2024-01-11T03:49:43;33.05;;;13.57;;
60488;SDS011;46331;49.252;8.904;2024-01-11T03:50:23;37.00;;;14.23;;
60488;SDS011;46331;49.252;8.904;2024-01-11T03:51:04;39.50;;;14.03;;
60488;SDS011;46331;49.252;8.904;2024-01-11T03:51:44;37.60;;;14.60;;
60488;SDS011;46331;49.252;8.904;2024-01-11T03:52:25;36.63;;;14.30;;
60488;SDS011;46331;49.252;8.904;2024-01-11T03:53:05;41.03;;;14.75;;
60488;SDS011;46331;49.252;8.904;2024-01-11T03:53:46;37.67;;;15.13;;
60488;SDS011;46331;49.252;8.904;2024-01-11T03:54:29;37.53;;;15.02;;
60488;SDS011;46331;49.252;8.904;2024-01-11T03:55:10;33.93;;;14.23;;
60488;SDS011;46331;49.252;8.904;2024-01-11T03:55:50;37.67;;;14.75;;
60488;SDS011;46331;49.252;8.904;2024-01-11T03:56:31;32.10;;;13.90;;
60488;SDS011;46331;49.252;8.904;2024-01-11T03:57:11;35.03;;;14.70;;
60488;SDS011;46331;49.252;8.904;2024-01-11T03:57:52;30.00;;;13.63;;
60488;SDS011;46331;49.252;8.904;2024-01-11T03:58:33;34.92;;;13.50;;
60488;SDS011;46331;49.252;8.904;2024-01-11T03:59:16;39.25;;;14.25;;
60488;SDS011;46331;49.252;8.904;2024-01-11T03:59:57;32.27;;;14.60;;
60488;SDS011;46331;49.252;8.904;2024-01-11T04:00:39;41.60;;;14.85;;
60488;SDS011;46331;49.252;8.904;2024-01-11T04:01:19;35.17;;;14.45;;